Miley Memorial field
KBPI : now visible

Airfield :











YOU CAN JOIN US ON...

 
LOGIN :

Register | Disclaimer

   EN    FR    IT 

 









Legend :    VFR   Marginal VFR   IFR   Intensive IFR   Very Intensive IFR
Visi :
Ceiling :
>= 8 km
>= 3000ft
5 to 8 km
1000 to 3000 ft
1500m to 5 km
500 to 1000 ft
800 to 1500m
200 to 500 ft
< 800m
< 200 ft
Symbols :   Thunderstorms  Fog  Heavy snow  Heavy precipitations  Wind > 20 kt






- Airport Elevation : 6990 ft


KBPI - Miley Memorial field

CURRENT METAR :
  • 201653Z AUTO 30012KT 10SM FEW060 13/M02 A3008 RMK AO2 SLP141 T01281022

EXPIRED METARs :
  • 201553Z AUTO 34008G15KT 10SM OVC055 12/M02 A3007 RMK AO2 SLP131 T01171017
  • 201453Z AUTO 07004KT 10SM SCT050 08/M02 A3006 RMK AO2 SLP136 T00831022 53004

TAF KBPI
Valid from the 20 at 18:00 until the 21 at 18:00 UTC


201731Z 2018/2118 31012G20KT P6SM SCT100
FM202000 30015G25KT P6SM SCT100
FM210100 34007KT P6SM SCT100
FM211100 VRB05KT P6SM BKN090
FM211400 30011KT P6SM SCT040 BKN090
KZLC FIR / North America



MET'MAP, your aeronautical weather chart ! - Copyright ORBIFLY December 2007 - Disclaimer

ORBIFLY MET'MAP TEAM :

Programming & Development : Alexandra Zaïnal
Concept & original design : Baudouin d'Aumeries
Assistance for programming : Marc-Olivier Méhu
Technical & hardware support : Manuel Goepfert

Contact : metmap@orbifly.com




SOURCES & CREDITS :

   NOAA       Earth
Advisory